sensor_id;sensor_type;location;lat;lon;timestamp;temperature;humidity
16408;DHT22;8313;49.894;8.084;2024-01-25T00:01:25;8.30;99.90
16408;DHT22;8313;49.894;8.084;2024-01-25T00:03:51;8.30;99.90
16408;DHT22;8313;49.894;8.084;2024-01-25T00:06:17;8.30;99.90
16408;DHT22;8313;49.894;8.084;2024-01-25T00:08:42;8.30;99.90
16408;DHT22;8313;49.894;8.084;2024-01-25T00:11:08;8.20;99.90
16408;DHT22;8313;49.894;8.084;2024-01-25T00:13:35;8.20;99.90
16408;DHT22;8313;49.894;8.084;2024-01-25T00:16:01;8.20;99.90
16408;DHT22;8313;49.894;8.084;2024-01-25T00:18:27;8.20;99.90
16408;DHT22;8313;49.894;8.084;2024-01-25T00:20:55;8.10;99.90
16408;DHT22;8313;49.894;8.084;2024-01-25T00:23:21;8.20;99.90
16408;DHT22;8313;49.894;8.084;2024-01-25T00:25:46;8.10;99.90
16408;DHT22;8313;49.894;8.084;2024-01-25T00:28:12;8.20;99.90
16408;DHT22;8313;49.894;8.084;2024-01-25T00:30:39;8.20;99.90
16408;DHT22;8313;49.894;8.084;2024-01-25T00:33:04;8.10;99.90
16408;DHT22;8313;49.894;8.084;2024-01-25T00:35:30;8.10;99.90
16408;DHT22;8313;49.894;8.084;2024-01-25T00:37:56;8.10;99.90
16408;DHT22;8313;49.894;8.084;2024-01-25T00:40:22;8.00;99.90
16408;DHT22;8313;49.894;8.084;2024-01-25T00:42:49;8.00;99.90
16408;DHT22;8313;49.894;8.084;2024-01-25T00:45:22;8.00;99.90
16408;DHT22;8313;49.894;8.084;2024-01-25T00:47:49;8.00;99.90
16408;DHT22;8313;49.894;8.084;2024-01-25T00:50:16;8.00;99.90
16408;DHT22;8313;49.894;8.084;2024-01-25T00:52:47;8.00;99.90
16408;DHT22;8313;49.894;8.084;2024-01-25T00:55:14;8.00;99.90
16408;DHT22;8313;49.894;8.084;2024-01-25T00:57:40;8.00;99.90
16408;DHT22;8313;49.894;8.084;2024-01-25T01:00:06;8.00;99.90
16408;DHT22;8313;49.894;8.084;2024-01-25T01:02:36;8.00;99.90
16408;DHT22;8313;49.894;8.084;2024-01-25T01:05:03;8.00;99.90
16408;DHT22;8313;49.894;8.084;2024-01-25T01:07:29;8.00;99.90
16408;DHT22;8313;49.894;8.084;2024-01-25T01:09:55;8.00;99.90
16408;DHT22;8313;49.894;8.084;2024-01-25T01:12:20;8.00;99.90
16408;DHT22;8313;49.894;8.084;2024-01-25T01:14:46;7.90;99.90
16408;DHT22;8313;49.894;8.084;2024-01-25T01:17:11;7.90;99.90
16408;DHT22;8313;49.894;8.084;2024-01-25T01:19:37;8.00;99.90
16408;DHT22;8313;49.894;8.084;2024-01-25T01:22:03;8.00;99.90
16408;DHT22;8313;49.894;8.084;2024-01-25T01:24:28;8.00;99.90
16408;DHT22;8313;49.894;8.084;2024-01-25T01:26:54;7.90;99.90
16408;DHT22;8313;49.894;8.084;2024-01-25T01:29:20;8.00;99.90
16408;DHT22;8313;49.894;8.084;2024-01-25T01:31:45;8.00;99.90
16408;DHT22;8313;49.894;8.084;2024-01-25T01:34:11;8.00;99.90
16408;DHT22;8313;49.894;8.084;2024-01-25T01:36:39;8.00;99.90
16408;DHT22;8313;49.894;8.084;2024-01-25T01:39:04;8.00;99.90
16408;DHT22;8313;49.894;8.084;2024-01-25T01:41:31;7.90;99.90
16408;DHT22;8313;49.894;8.084;2024-01-25T01:43:57;7.90;99.90
16408;DHT22;8313;49.894;8.084;2024-01-25T01:46:34;7.90;99.90
16408;DHT22;8313;49.894;8.084;2024-01-25T01:49:08;7.90;99.90
16408;DHT22;8313;49.894;8.084;2024-01-25T01:51:37;7.90;99.90
16408;DHT22;8313;49.894;8.084;2024-01-25T01:54:06;7.90;99.90
16408;DHT22;8313;49.894;8.084;2024-01-25T01:56:32;7.80;99.90
16408;DHT22;8313;49.894;8.084;2024-01-25T01:59:00;7.80;99.90
16408;DHT22;8313;49.894;8.084;2024-01-25T02:01:27;7.80;99.90
16408;DHT22;8313;49.894;8.084;2024-01-25T02:03:53;7.80;99.90
16408;DHT22;8313;49.894;8.084;2024-01-25T02:06:19;7.90;99.90
16408;DHT22;8313;49.894;8.084;2024-01-25T02:08:46;7.90;99.90
16408;DHT22;8313;49.894;8.084;2024-01-25T02:11:12;7.80;99.90
16408;DHT22;8313;49.894;8.084;2024-01-25T02:13:38;7.80;99.90
16408;DHT22;8313;49.894;8.084;2024-01-25T02:16:07;7.80;99.90
16408;DHT22;8313;49.894;8.084;2024-01-25T02:18:34;7.80;99.90
16408;DHT22;8313;49.894;8.084;2024-01-25T02:21:00;7.70;99.90
16408;DHT22;8313;49.894;8.084;2024-01-25T02:23:25;7.70;99.90
16408;DHT22;8313;49.894;8.084;2024-01-25T02:25:51;7.80;99.90
16408;DHT22;8313;49.894;8.084;2024-01-25T02:28:17;7.90;99.90
16408;DHT22;8313;49.894;8.084;2024-01-25T02:30:43;7.80;99.90
16408;DHT22;8313;49.894;8.084;2024-01-25T02:33:08;7.80;99.90
16408;DHT22;8313;49.894;8.084;2024-01-25T02:35:34;7.80;99.90
16408;DHT22;8313;49.894;8.084;2024-01-25T02:38:00;7.80;99.90
16408;DHT22;8313;49.894;8.084;2024-01-25T02:40:25;7.80;99.90
16408;DHT22;8313;49.894;8.084;2024-01-25T02:42:51;7.70;99.90
16408;DHT22;8313;49.894;8.084;2024-01-25T02:45:17;7.70;99.90
16408;DHT22;8313;49.894;8.084;2024-01-25T02:47:43;7.80;99.90
16408;DHT22;8313;49.894;8.084;2024-01-25T02:50:09;7.70;99.90
16408;DHT22;8313;49.894;8.084;2024-01-25T02:52:34;7.70;99.90
16408;DHT22;8313;49.894;8.084;2024-01-25T02:55:00;7.70;99.90
16408;DHT22;8313;49.894;8.084;2024-01-25T02:57:26;7.80;99.90
16408;DHT22;8313;49.894;8.084;2024-01-25T02:59:52;7.80;99.90
16408;DHT22;8313;49.894;8.084;2024-01-25T03:02:17;7.80;99.90
16408;DHT22;8313;49.894;8.084;2024-01-25T03:04:45;7.70;99.90
16408;DHT22;8313;49.894;8.084;2024-01-25T03:07:11;7.60;99.90
16408;DHT22;8313;49.894;8.084;2024-01-25T03:09:36;7.50;99.90
16408;DHT22;8313;49.894;8.084;2024-01-25T03:12:02;7.50;99.90
16408;DHT22;8313;49.894;8.084;2024-01-25T03:14:28;7.40;99.90
16408;DHT22;8313;49.894;8.084;2024-01-25T03:16:53;7.40;99.90
16408;DHT22;8313;49.894;8.084;2024-01-25T03:19:19;7.50;99.90
16408;DHT22;8313;49.894;8.084;2024-01-25T03:21:45;7.50;99.90
16408;DHT22;8313;49.894;8.084;2024-01-25T03:24:10;7.50;99.90
16408;DHT22;8313;49.894;8.084;2024-01-25T03:26:36;7.40;99.90
16408;DHT22;8313;49.894;8.084;2024-01-25T03:29:02;7.50;99.90
16408;DHT22;8313;49.894;8.084;2024-01-25T03:31:28;7.50;99.90
16408;DHT22;8313;49.894;8.084;2024-01-25T03:33:53;7.60;99.90
16408;DHT22;8313;49.894;8.084;2024-01-25T03:36:19;7.60;99.90
16408;DHT22;8313;49.894;8.084;2024-01-25T03:38:45;7.60;99.90
16408;DHT22;8313;49.894;8.084;2024-01-25T03:41:10;7.60;99.90
16408;DHT22;8313;49.894;8.084;2024-01-25T03:43:36;7.60;99.90
16408;DHT22;8313;49.894;8.084;2024-01-25T03:46:02;7.60;99.90
16408;DHT22;8313;49.894;8.084;2024-01-25T03:48:30;7.70;99.90
16408;DHT22;8313;49.894;8.084;2024-01-25T03:50:56;7.70;99.90
16408;DHT22;8313;49.894;8.084;2024-01-25T03:53:22;7.70;99.90
16408;DHT22;8313;49.894;8.084;2024-01-25T03:55:49;7.70;99.90
16408;DHT22;8313;49.894;8.084;2024-01-25T03:58:17;7.60;99.90
16408;DHT22;8313;49.894;8.084;2024-01-25T04:00:46;7.60;99.90
16408;DHT22;8313;49.894;8.084;2024-01-25T04:03:12;7.60;99.90
16408;DHT22;8313;49.894;8.084;2024-01-25T04:05:37;7.70;99.90
16408;DHT22;8313;49.894;8.084;2024-01-25T04:08:05;7.70;99.90
16408;DHT22;8313;49.894;8.084;2024-01-25T04:10:31;7.70;99.90
16408;DHT22;8313;49.894;8.084;2024-01-25T04:12:57;7.80;99.90
16408;DHT22;8313;49.894;8.084;2024-01-25T04:15:22;7.80;99.90
16408;DHT22;8313;49.894;8.084;2024-01-25T04:17:48;7.70;99.90
16408;DHT22;8313;49.894;8.084;2024-01-25T04:20:15;7.70;99.90
16408;DHT22;8313;49.894;8.084;2024-01-25T04:22:41;7.70;99.90
16408;DHT22;8313;49.894;8.084;2024-01-25T04:25:07;7.70;99.90
16408;DHT22;8313;49.894;8.084;2024-01-25T04:27:32;7.70;99.90
16408;DHT22;8313;49.894;8.084;2024-01-25T04:29:58;7.50;99.90
16408;DHT22;8313;49.894;8.084;2024-01-25T04:32:24;7.50;99.90
16408;DHT22;8313;49.894;8.084;2024-01-25T04:34:50;7.50;99.90
16408;DHT22;8313;49.894;8.084;2024-01-25T04:37:15;7.50;99.90
16408;DHT22;8313;49.894;8.084;2024-01-25T04:39:41;7.60;99.90
16408;DHT22;8313;49.894;8.084;2024-01-25T04:42:07;7.70;99.90
16408;DHT22;8313;49.894;8.084;2024-01-25T04:44:33;7.60;99.90
16408;DHT22;8313;49.894;8.084;2024-01-25T04:46:59;7.60;99.90
16408;DHT22;8313;49.894;8.084;2024-01-25T04:49:25;7.40;99.90
16408;DHT22;8313;49.894;8.084;2024-01-25T04:51:51;7.30;99.90
16408;DHT22;8313;49.894;8.084;2024-01-25T04:54:17;7.30;99.90
16408;DHT22;8313;49.894;8.084;2024-01-25T04:56:43;7.10;99.90
16408;DHT22;8313;49.894;8.084;2024-01-25T04:59:09;7.10;99.90
16408;DHT22;8313;49.894;8.084;2024-01-25T05:01:35;7.20;99.90
16408;DHT22;8313;49.894;8.084;2024-01-25T05:04:00;7.20;99.90
16408;DHT22;8313;49.894;8.084;2024-01-25T05:06:26;7.20;99.90
16408;DHT22;8313;49.894;8.084;2024-01-25T05:08:52;7.10;99.90
16408;DHT22;8313;49.894;8.084;2024-01-25T05:11:18;7.10;99.90
16408;DHT22;8313;49.894;8.084;2024-01-25T05:13:44;7.10;99.90
16408;DHT22;8313;49.894;8.084;2024-01-25T05:16:09;7.00;99.90
16408;DHT22;8313;49.894;8.084;2024-01-25T05:18:35;6.90;99.90
16408;DHT22;8313;49.894;8.084;2024-01-25T05:21:01;7.00;99.90
16408;DHT22;8313;49.894;8.084;2024-01-25T05:23:26;6.90;99.90
16408;DHT22;8313;49.894;8.084;2024-01-25T05:25:52;7.00;99.90
16408;DHT22;8313;49.894;8.084;2024-01-25T05:28:18;7.00;99.90
16408;DHT22;8313;49.894;8.084;2024-01-25T05:30:44;7.10;99.90
16408;DHT22;8313;49.894;8.084;2024-01-25T05:33:10;7.10;99.90
16408;DHT22;8313;49.894;8.084;2024-01-25T05:35:35;7.10;99.90
16408;DHT22;8313;49.894;8.084;2024-01-25T05:38:01;7.20;99.90
16408;DHT22;8313;49.894;8.084;2024-01-25T05:40:26;7.20;99.90
16408;DHT22;8313;49.894;8.084;2024-01-25T05:42:52;7.10;99.90
16408;DHT22;8313;49.894;8.084;2024-01-25T05:45:18;7.10;99.90
16408;DHT22;8313;49.894;8.084;2024-01-25T05:47:46;7.20;99.90
16408;DHT22;8313;49.894;8.084;2024-01-25T05:50:12;7.20;99.90
16408;DHT22;8313;49.894;8.084;2024-01-25T05:52:38;7.20;99.90
16408;DHT22;8313;49.894;8.084;2024-01-25T05:55:07;7.30;99.90
16408;DHT22;8313;49.894;8.084;2024-01-25T05:57:35;7.30;99.90
16408;DHT22;8313;49.894;8.084;2024-01-25T06:00:01;7.20;99.90
16408;DHT22;8313;49.894;8.084;2024-01-25T06:02:27;7.30;99.90
16408;DHT22;8313;49.894;8.084;2024-01-25T06:04:52;7.20;99.90
16408;DHT22;8313;49.894;8.084;2024-01-25T06:07:18;7.20;99.90
16408;DHT22;8313;49.894;8.084;2024-01-25T06:09:43;7.20;99.90
16408;DHT22;8313;49.894;8.084;2024-01-25T06:12:09;7.10;99.90
16408;DHT22;8313;49.894;8.084;2024-01-25T06:14:35;7.10;99.90
16408;DHT22;8313;49.894;8.084;2024-01-25T06:17:00;7.00;99.90
16408;DHT22;8313;49.894;8.084;2024-01-25T06:19:26;7.00;99.90
16408;DHT22;8313;49.894;8.084;2024-01-25T06:21:52;7.00;99.90
16408;DHT22;8313;49.894;8.084;2024-01-25T06:24:17;7.00;99.90
16408;DHT22;8313;49.894;8.084;2024-01-25T06:26:43;6.90;99.90
16408;DHT22;8313;49.894;8.084;2024-01-25T06:29:09;6.90;99.90
16408;DHT22;8313;49.894;8.084;2024-01-25T06:31:43;6.90;99.90
16408;DHT22;8313;49.894;8.084;2024-01-25T06:34:09;7.00;99.90
16408;DHT22;8313;49.894;8.084;2024-01-25T06:36:35;7.00;99.90
16408;DHT22;8313;49.894;8.084;2024-01-25T06:39:01;7.00;99.90
16408;DHT22;8313;49.894;8.084;2024-01-25T06:41:26;7.00;99.90
16408;DHT22;8313;49.894;8.084;2024-01-25T06:43:52;7.10;99.90
16408;DHT22;8313;49.894;8.084;2024-01-25T06:46:17;7.10;99.90
16408;DHT22;8313;49.894;8.084;2024-01-25T06:48:43;7.10;99.90
16408;DHT22;8313;49.894;8.084;2024-01-25T06:51:09;7.10;99.90
16408;DHT22;8313;49.894;8.084;2024-01-25T06:53:34;7.20;99.90
16408;DHT22;8313;49.894;8.084;2024-01-25T06:56:00;7.20;99.90
16408;DHT22;8313;49.894;8.084;2024-01-25T06:58:26;7.20;99.90
16408;DHT22;8313;49.894;8.084;2024-01-25T07:00:52;7.20;99.90
16408;DHT22;8313;49.894;8.084;2024-01-25T07:03:18;7.20;99.90
16408;DHT22;8313;49.894;8.084;2024-01-25T07:05:44;7.20;99.90
16408;DHT22;8313;49.894;8.084;2024-01-25T07:08:10;7.10;99.90
16408;DHT22;8313;49.894;8.084;2024-01-25T07:10:39;7.20;99.90
16408;DHT22;8313;49.894;8.084;2024-01-25T07:13:05;7.20;99.90
16408;DHT22;8313;49.894;8.084;2024-01-25T07:15:31;7.10;99.90
16408;DHT22;8313;49.894;8.084;2024-01-25T07:17:57;7.00;99.90
16408;DHT22;8313;49.894;8.084;2024-01-25T07:20:23;7.00;99.90
16408;DHT22;8313;49.894;8.084;2024-01-25T07:22:49;6.90;99.90
16408;DHT22;8313;49.894;8.084;2024-01-25T07:25:14;6.70;99.90
16408;DHT22;8313;49.894;8.084;2024-01-25T07:27:44;6.70;99.90
16408;DHT22;8313;49.894;8.084;2024-01-25T07:30:10;6.70;99.90
16408;DHT22;8313;49.894;8.084;2024-01-25T07:32:37;6.70;99.90
16408;DHT22;8313;49.894;8.084;2024-01-25T07:35:04;6.70;99.90
16408;DHT22;8313;49.894;8.084;2024-01-25T07:37:30;6.70;99.90
16408;DHT22;8313;49.894;8.084;2024-01-25T07:39:56;6.70;99.90
16408;DHT22;8313;49.894;8.084;2024-01-25T07:42:21;6.80;99.90
16408;DHT22;8313;49.894;8.084;2024-01-25T07:44:47;6.90;99.90
16408;DHT22;8313;49.894;8.084;2024-01-25T07:47:14;6.90;99.90
16408;DHT22;8313;49.894;8.084;2024-01-25T07:49:42;6.90;99.90
16408;DHT22;8313;49.894;8.084;2024-01-25T07:52:08;6.90;99.90
16408;DHT22;8313;49.894;8.084;2024-01-25T07:54:34;6.90;99.90
16408;DHT22;8313;49.894;8.084;2024-01-25T07:57:00;7.00;99.90
16408;DHT22;8313;49.894;8.084;2024-01-25T07:59:25;6.90;99.90
16408;DHT22;8313;49.894;8.084;2024-01-25T08:01:51;6.80;99.90
16408;DHT22;8313;49.894;8.084;2024-01-25T08:04:16;6.80;99.90
16408;DHT22;8313;49.894;8.084;2024-01-25T08:06:42;6.80;99.90
16408;DHT22;8313;49.894;8.084;2024-01-25T08:09:08;6.80;99.90
16408;DHT22;8313;49.894;8.084;2024-01-25T08:11:34;6.80;99.90
16408;DHT22;8313;49.894;8.084;2024-01-25T08:14:00;6.80;99.90
16408;DHT22;8313;49.894;8.084;2024-01-25T08:16:29;6.70;99.90
16408;DHT22;8313;49.894;8.084;2024-01-25T08:18:55;6.80;99.90
16408;DHT22;8313;49.894;8.084;2024-01-25T08:21:21;6.80;99.90
16408;DHT22;8313;49.894;8.084;2024-01-25T08:23:46;6.80;99.90
16408;DHT22;8313;49.894;8.084;2024-01-25T08:26:12;6.80;99.90
16408;DHT22;8313;49.894;8.084;2024-01-25T08:28:39;6.90;99.90
16408;DHT22;8313;49.894;8.084;2024-01-25T08:31:05;7.00;99.90
16408;DHT22;8313;49.894;8.084;2024-01-25T08:33:31;7.00;99.90
16408;DHT22;8313;49.894;8.084;2024-01-25T08:35:57;7.10;99.90
16408;DHT22;8313;49.894;8.084;2024-01-25T08:38:22;7.00;99.90
16408;DHT22;8313;49.894;8.084;2024-01-25T08:40:48;7.00;99.90
16408;DHT22;8313;49.894;8.084;2024-01-25T08:43:14;7.00;99.90
16408;DHT22;8313;49.894;8.084;2024-01-25T08:45:39;7.10;99.90
16408;DHT22;8313;49.894;8.084;2024-01-25T08:48:05;7.10;99.90
16408;DHT22;8313;49.894;8.084;2024-01-25T08:50:31;7.10;99.90
16408;DHT22;8313;49.894;8.084;2024-01-25T08:52:57;7.20;99.90
16408;DHT22;8313;49.894;8.084;2024-01-25T08:55:22;7.20;99.90
16408;DHT22;8313;49.894;8.084;2024-01-25T08:57:50;7.30;99.90
16408;DHT22;8313;49.894;8.084;2024-01-25T09:00:16;7.40;99.90
16408;DHT22;8313;49.894;8.084;2024-01-25T09:02:42;7.40;99.90
16408;DHT22;8313;49.894;8.084;2024-01-25T09:05:08;7.50;99.90
16408;DHT22;8313;49.894;8.084;2024-01-25T09:07:34;7.60;99.90
16408;DHT22;8313;49.894;8.084;2024-01-25T09:10:00;7.60;99.90
16408;DHT22;8313;49.894;8.084;2024-01-25T09:12:26;7.70;99.90
16408;DHT22;8313;49.894;8.084;2024-01-25T09:14:52;7.70;99.90
16408;DHT22;8313;49.894;8.084;2024-01-25T09:17:17;7.80;99.90
16408;DHT22;8313;49.894;8.084;2024-01-25T09:19:50;7.90;99.90
16408;DHT22;8313;49.894;8.084;2024-01-25T09:22:17;8.00;99.90
16408;DHT22;8313;49.894;8.084;2024-01-25T09:24:48;8.10;99.90
16408;DHT22;8313;49.894;8.084;2024-01-25T09:27:14;8.10;99.90
16408;DHT22;8313;49.894;8.084;2024-01-25T09:29:40;8.20;99.90
16408;DHT22;8313;49.894;8.084;2024-01-25T09:32:07;8.30;99.90
16408;DHT22;8313;49.894;8.084;2024-01-25T09:34:34;8.40;99.90
16408;DHT22;8313;49.894;8.084;2024-01-25T09:37:00;8.50;99.90
16408;DHT22;8313;49.894;8.084;2024-01-25T09:39:26;8.50;99.90
16408;DHT22;8313;49.894;8.084;2024-01-25T09:41:52;8.60;99.90
16408;DHT22;8313;49.894;8.084;2024-01-25T09:44:18;8.60;99.90
16408;DHT22;8313;49.894;8.084;2024-01-25T09:46:44;8.70;99.90
16408;DHT22;8313;49.894;8.084;2024-01-25T09:49:11;8.70;99.90
16408;DHT22;8313;49.894;8.084;2024-01-25T09:51:41;8.70;99.90
16408;DHT22;8313;49.894;8.084;2024-01-25T09:54:07;8.70;99.90
16408;DHT22;8313;49.894;8.084;2024-01-25T09:56:33;8.80;99.90
16408;DHT22;8313;49.894;8.084;2024-01-25T09:58:59;8.80;99.90
16408;DHT22;8313;49.894;8.084;2024-01-25T10:01:26;8.90;99.90
16408;DHT22;8313;49.894;8.084;2024-01-25T10:03:52;8.90;99.90
16408;DHT22;8313;49.894;8.084;2024-01-25T10:06:18;8.90;99.90
16408;DHT22;8313;49.894;8.084;2024-01-25T10:08:44;8.90;99.90
16408;DHT22;8313;49.894;8.084;2024-01-25T10:11:10;9.00;99.90
16408;DHT22;8313;49.894;8.084;2024-01-25T10:13:43;9.00;99.90
16408;DHT22;8313;49.894;8.084;2024-01-25T10:16:19;9.10;99.90
16408;DHT22;8313;49.894;8.084;2024-01-25T10:18:48;9.20;99.90
16408;DHT22;8313;49.894;8.084;2024-01-25T10:21:15;9.30;99.90
16408;DHT22;8313;49.894;8.084;2024-01-25T10:23:43;9.40;99.90
16408;DHT22;8313;49.894;8.084;2024-01-25T10:26:09;9.40;99.90
16408;DHT22;8313;49.894;8.084;2024-01-25T10:28:35;9.40;99.90
16408;DHT22;8313;49.894;8.084;2024-01-25T10:31:01;9.60;99.90
16408;DHT22;8313;49.894;8.084;2024-01-25T10:33:29;9.60;99.90
16408;DHT22;8313;49.894;8.084;2024-01-25T10:35:55;9.60;99.90
16408;DHT22;8313;49.894;8.084;2024-01-25T10:38:34;9.70;99.90
16408;DHT22;8313;49.894;8.084;2024-01-25T10:41:02;9.70;99.90
16408;DHT22;8313;49.894;8.084;2024-01-25T10:43:29;9.70;99.90
16408;DHT22;8313;49.894;8.084;2024-01-25T10:45:58;9.70;99.90
16408;DHT22;8313;49.894;8.084;2024-01-25T10:48:25;9.60;99.90
16408;DHT22;8313;49.894;8.084;2024-01-25T10:50:53;9.60;99.90
16408;DHT22;8313;49.894;8.084;2024-01-25T10:53:19;9.70;99.90
16408;DHT22;8313;49.894;8.084;2024-01-25T10:55:45;9.80;99.90
16408;DHT22;8313;49.894;8.084;2024-01-25T10:58:13;9.80;99.90
16408;DHT22;8313;49.894;8.084;2024-01-25T11:00:40;9.80;99.90
16408;DHT22;8313;49.894;8.084;2024-01-25T11:03:08;9.80;99.90
16408;DHT22;8313;49.894;8.084;2024-01-25T11:05:35;9.80;99.90
16408;DHT22;8313;49.894;8.084;2024-01-25T11:08:01;9.80;99.90
16408;DHT22;8313;49.894;8.084;2024-01-25T11:10:27;9.80;99.90
16408;DHT22;8313;49.894;8.084;2024-01-25T11:15:22;9.90;99.90
16408;DHT22;8313;49.894;8.084;2024-01-25T11:17:55;9.90;99.90
16408;DHT22;8313;49.894;8.084;2024-01-25T11:20:22;10.00;99.90
16408;DHT22;8313;49.894;8.084;2024-01-25T11:22:54;9.90;99.90
16408;DHT22;8313;49.894;8.084;2024-01-25T11:25:21;10.00;99.90
16408;DHT22;8313;49.894;8.084;2024-01-25T11:27:50;10.20;99.90
16408;DHT22;8313;49.894;8.084;2024-01-25T11:30:18;10.20;99.90
16408;DHT22;8313;49.894;8.084;2024-01-25T11:32:49;10.30;99.90
16408;DHT22;8313;49.894;8.084;2024-01-25T11:35:15;10.30;99.90
16408;DHT22;8313;49.894;8.084;2024-01-25T11:37:47;10.30;99.90
16408;DHT22;8313;49.894;8.084;2024-01-25T11:40:15;10.30;99.90
16408;DHT22;8313;49.894;8.084;2024-01-25T11:42:45;10.30;99.90
16408;DHT22;8313;49.894;8.084;2024-01-25T11:45:12;10.40;99.90
16408;DHT22;8313;49.894;8.084;2024-01-25T11:47:38;10.40;99.90
16408;DHT22;8313;49.894;8.084;2024-01-25T11:50:05;10.40;99.90
16408;DHT22;8313;49.894;8.084;2024-01-25T11:52:32;10.50;99.90
16408;DHT22;8313;49.894;8.084;2024-01-25T11:55:06;10.70;99.90
16408;DHT22;8313;49.894;8.084;2024-01-25T11:57:35;11.00;99.90
16408;DHT22;8313;49.894;8.084;2024-01-25T12:00:03;11.00;99.90
16408;DHT22;8313;49.894;8.084;2024-01-25T12:02:33;11.10;99.90
16408;DHT22;8313;49.894;8.084;2024-01-25T12:04:59;11.10;99.90
16408;DHT22;8313;49.894;8.084;2024-01-25T12:07:30;11.30;99.90
16408;DHT22;8313;49.894;8.084;2024-01-25T12:10:06;11.30;99.90
16408;DHT22;8313;49.894;8.084;2024-01-25T12:12:32;11.40;99.90
16408;DHT22;8313;49.894;8.084;2024-01-25T12:15:01;11.20;99.90
16408;DHT22;8313;49.894;8.084;2024-01-25T12:17:29;11.10;99.90
16408;DHT22;8313;49.894;8.084;2024-01-25T12:19:58;11.30;99.90
16408;DHT22;8313;49.894;8.084;2024-01-25T12:22:27;11.50;99.90
16408;DHT22;8313;49.894;8.084;2024-01-25T12:24:53;11.50;99.90
16408;DHT22;8313;49.894;8.084;2024-01-25T12:27:23;11.60;99.90
16408;DHT22;8313;49.894;8.084;2024-01-25T12:29:53;11.40;99.90
16408;DHT22;8313;49.894;8.084;2024-01-25T12:32:20;11.50;99.90
16408;DHT22;8313;49.894;8.084;2024-01-25T12:34:55;11.50;99.90
16408;DHT22;8313;49.894;8.084;2024-01-25T12:37:22;11.40;99.90
16408;DHT22;8313;49.894;8.084;2024-01-25T12:39:48;11.50;99.90
16408;DHT22;8313;49.894;8.084;2024-01-25T12:42:14;11.50;99.90
16408;DHT22;8313;49.894;8.084;2024-01-25T12:44:40;11.60;99.90
16408;DHT22;8313;49.894;8.084;2024-01-25T12:47:06;11.60;99.90
16408;DHT22;8313;49.894;8.084;2024-01-25T12:49:33;11.50;99.90
16408;DHT22;8313;49.894;8.084;2024-01-25T12:51:59;11.40;99.90
16408;DHT22;8313;49.894;8.084;2024-01-25T12:54:26;11.40;99.90
16408;DHT22;8313;49.894;8.084;2024-01-25T12:56:52;11.60;99.90
16408;DHT22;8313;49.894;8.084;2024-01-25T12:59:17;11.70;99.90
16408;DHT22;8313;49.894;8.084;2024-01-25T13:01:43;11.60;99.90
16408;DHT22;8313;49.894;8.084;2024-01-25T13:04:09;11.60;99.90
16408;DHT22;8313;49.894;8.084;2024-01-25T13:06:34;11.60;99.90
16408;DHT22;8313;49.894;8.084;2024-01-25T13:09:00;11.70;99.90
16408;DHT22;8313;49.894;8.084;2024-01-25T13:11:26;11.80;99.90
16408;DHT22;8313;49.894;8.084;2024-01-25T13:13:51;11.90;99.90
16408;DHT22;8313;49.894;8.084;2024-01-25T13:16:17;12.00;99.90
16408;DHT22;8313;49.894;8.084;2024-01-25T13:18:43;12.10;99.90
16408;DHT22;8313;49.894;8.084;2024-01-25T13:21:09;12.00;99.90
16408;DHT22;8313;49.894;8.084;2024-01-25T13:23:34;11.80;99.90
16408;DHT22;8313;49.894;8.084;2024-01-25T13:26:01;11.80;99.90
16408;DHT22;8313;49.894;8.084;2024-01-25T13:28:26;11.80;99.90
16408;DHT22;8313;49.894;8.084;2024-01-25T13:30:52;11.80;99.90
16408;DHT22;8313;49.894;8.084;2024-01-25T13:33:19;11.90;99.90
16408;DHT22;8313;49.894;8.084;2024-01-25T13:35:45;11.80;99.90
16408;DHT22;8313;49.894;8.084;2024-01-25T13:38:11;11.80;99.90
16408;DHT22;8313;49.894;8.084;2024-01-25T13:40:40;11.80;99.90
16408;DHT22;8313;49.894;8.084;2024-01-25T13:43:06;11.90;99.90
16408;DHT22;8313;49.894;8.084;2024-01-25T13:45:32;12.00;99.90
16408;DHT22;8313;49.894;8.084;2024-01-25T13:47:57;12.00;99.90
16408;DHT22;8313;49.894;8.084;2024-01-25T13:50:23;12.00;99.90
16408;DHT22;8313;49.894;8.084;2024-01-25T13:52:49;11.90;99.90
16408;DHT22;8313;49.894;8.084;2024-01-25T13:55:15;11.90;99.90
16408;DHT22;8313;49.894;8.084;2024-01-25T13:57:41;11.90;99.90
16408;DHT22;8313;49.894;8.084;2024-01-25T14:00:07;11.90;99.90
16408;DHT22;8313;49.894;8.084;2024-01-25T14:02:33;11.90;99.90
16408;DHT22;8313;49.894;8.084;2024-01-25T14:04:59;11.90;99.90
16408;DHT22;8313;49.894;8.084;2024-01-25T14:07:25;11.90;99.90
16408;DHT22;8313;49.894;8.084;2024-01-25T14:09:51;11.90;99.90
16408;DHT22;8313;49.894;8.084;2024-01-25T14:12:20;11.90;99.90
16408;DHT22;8313;49.894;8.084;2024-01-25T14:14:45;11.90;99.90
16408;DHT22;8313;49.894;8.084;2024-01-25T14:17:11;11.80;99.90
16408;DHT22;8313;49.894;8.084;2024-01-25T14:19:36;11.80;99.90
16408;DHT22;8313;49.894;8.084;2024-01-25T14:22:02;11.80;99.90
16408;DHT22;8313;49.894;8.084;2024-01-25T14:24:28;11.80;99.90
16408;DHT22;8313;49.894;8.084;2024-01-25T14:26:54;11.80;99.90
16408;DHT22;8313;49.894;8.084;2024-01-25T14:29:19;11.70;99.90
16408;DHT22;8313;49.894;8.084;2024-01-25T14:31:45;11.70;99.90
16408;DHT22;8313;49.894;8.084;2024-01-25T14:34:11;11.70;99.90
16408;DHT22;8313;49.894;8.084;2024-01-25T14:36:36;11.80;99.90
16408;DHT22;8313;49.894;8.084;2024-01-25T14:39:02;11.80;99.90
16408;DHT22;8313;49.894;8.084;2024-01-25T14:41:29;11.80;99.90
16408;DHT22;8313;49.894;8.084;2024-01-25T14:43:55;11.80;99.90
16408;DHT22;8313;49.894;8.084;2024-01-25T14:46:20;11.80;99.90
16408;DHT22;8313;49.894;8.084;2024-01-25T14:48:46;11.80;99.90
16408;DHT22;8313;49.894;8.084;2024-01-25T14:51:12;11.80;99.90
16408;DHT22;8313;49.894;8.084;2024-01-25T14:53:37;11.70;99.90
16408;DHT22;8313;49.894;8.084;2024-01-25T14:56:03;11.70;99.90
16408;DHT22;8313;49.894;8.084;2024-01-25T14:58:29;11.70;99.90
16408;DHT22;8313;49.894;8.084;2024-01-25T15:00:55;11.70;99.90
16408;DHT22;8313;49.894;8.084;2024-01-25T15:03:20;11.70;99.90
16408;DHT22;8313;49.894;8.084;2024-01-25T15:05:46;11.70;99.90
16408;DHT22;8313;49.894;8.084;2024-01-25T15:08:12;11.70;99.90
16408;DHT22;8313;49.894;8.084;2024-01-25T15:10:37;11.70;99.90
16408;DHT22;8313;49.894;8.084;2024-01-25T15:13:03;11.70;99.90
16408;DHT22;8313;49.894;8.084;2024-01-25T15:15:29;11.60;99.90
16408;DHT22;8313;49.894;8.084;2024-01-25T15:17:56;11.70;99.90
16408;DHT22;8313;49.894;8.084;2024-01-25T15:20:22;11.60;99.90
16408;DHT22;8313;49.894;8.084;2024-01-25T15:22:49;11.60;99.90
16408;DHT22;8313;49.894;8.084;2024-01-25T15:25:15;11.60;99.90
16408;DHT22;8313;49.894;8.084;2024-01-25T15:27:41;11.60;99.90
16408;DHT22;8313;49.894;8.084;2024-01-25T15:30:07;11.50;99.90
16408;DHT22;8313;49.894;8.084;2024-01-25T15:32:34;11.50;99.90
16408;DHT22;8313;49.894;8.084;2024-01-25T15:35:01;11.50;99.90
16408;DHT22;8313;49.894;8.084;2024-01-25T15:37:26;11.40;99.90
16408;DHT22;8313;49.894;8.084;2024-01-25T15:39:52;11.40;99.90
16408;DHT22;8313;49.894;8.084;2024-01-25T15:42:19;11.40;99.90
16408;DHT22;8313;49.894;8.084;2024-01-25T15:44:45;11.40;99.90
16408;DHT22;8313;49.894;8.084;2024-01-25T15:47:10;11.40;99.90
16408;DHT22;8313;49.894;8.084;2024-01-25T15:49:38;11.40;99.90
16408;DHT22;8313;49.894;8.084;2024-01-25T15:52:04;11.40;99.90
16408;DHT22;8313;49.894;8.084;2024-01-25T15:54:30;11.30;99.90